createdAt,value
2022-08-28T00:01:35.448Z,1.30
2022-08-28T00:03:42.040Z,1.10
2022-08-28T00:05:53.055Z,1.00
2022-08-28T00:08:23.678Z,1.10
2022-08-28T00:10:34.209Z,1.30
2022-08-28T00:13:14.901Z,1.00
2022-08-28T00:15:48.230Z,0.70
2022-08-28T00:18:01.901Z,1.20
2022-08-28T00:20:13.715Z,1.00
2022-08-28T00:22:29.598Z,0.80
2022-08-28T00:24:37.240Z,0.70
2022-08-28T00:27:03.486Z,0.90
2022-08-28T00:29:10.754Z,1.10
2022-08-28T00:31:17.632Z,1.10
2022-08-28T00:33:44.010Z,0.90
2022-08-28T00:35:54.101Z,0.90
2022-08-28T00:38:37.469Z,1.10
2022-08-28T00:41:00.124Z,0.80
2022-08-28T00:43:59.955Z,0.80
2022-08-28T00:46:10.474Z,0.80
2022-08-28T00:48:34.882Z,0.80
2022-08-28T00:51:43.122Z,1.00
2022-08-28T00:54:34.988Z,0.80
2022-08-28T00:56:48.722Z,0.90
2022-08-28T00:59:18.238Z,0.80
2022-08-28T01:01:56.086Z,0.90
2022-08-28T01:04:07.252Z,1.30
2022-08-28T01:06:16.401Z,1.00
2022-08-28T01:08:23.015Z,0.80
2022-08-28T01:10:55.311Z,1.10
2022-08-28T01:13:03.249Z,1.00
2022-08-28T01:15:26.259Z,1.00
2022-08-28T01:17:46.548Z,0.90
2022-08-28T01:20:15.251Z,0.90
2022-08-28T01:22:45.198Z,1.30
2022-08-28T01:25:01.035Z,0.90
2022-08-28T01:29:33.060Z,0.90
2022-08-28T01:32:28.240Z,0.70
2022-08-28T01:34:41.389Z,1.10
2022-08-28T01:36:49.987Z,1.10
2022-08-28T01:39:41.060Z,1.70
2022-08-28T01:42:07.391Z,1.40
2022-08-28T01:44:34.778Z,1.80
2022-08-28T01:47:30.993Z,1.10
2022-08-28T01:50:32.048Z,1.20
2022-08-28T01:55:09.084Z,1.10
2022-08-28T01:57:22.552Z,1.50
2022-08-28T01:59:51.453Z,1.10
2022-08-28T02:02:20.665Z,1.00
2022-08-28T02:04:38.664Z,0.90
2022-08-28T02:07:24.186Z,0.70
2022-08-28T02:09:37.485Z,1.00
2022-08-28T02:11:49.394Z,1.00
2022-08-28T02:14:06.929Z,1.00
2022-08-28T02:16:37.171Z,1.20
2022-08-28T02:19:04.633Z,1.10
2022-08-28T02:21:24.900Z,1.30
2022-08-28T02:23:31.767Z,1.20
2022-08-28T02:25:47.692Z,1.60
2022-08-28T02:28:42.223Z,1.50
2022-08-28T02:30:51.961Z,1.40
2022-08-28T02:33:01.520Z,1.10
2022-08-28T02:35:12.735Z,1.50
2022-08-28T02:42:20.450Z,0.80
2022-08-28T02:44:26.723Z,1.40
2022-08-28T02:46:33.140Z,1.20
2022-08-28T02:48:41.602Z,1.40
2022-08-28T02:50:48.379Z,1.20
2022-08-28T02:52:55.281Z,1.10
2022-08-28T02:55:01.364Z,1.50
2022-08-28T02:57:10.132Z,1.10
2022-08-28T02:59:19.152Z,0.80
2022-08-28T03:01:26.099Z,1.10
2022-08-28T03:03:33.459Z,1.10
2022-08-28T03:05:39.459Z,1.30
2022-08-28T03:07:45.506Z,1.10
2022-08-28T03:09:51.997Z,1.20
2022-08-28T03:11:58.095Z,1.10
2022-08-28T03:14:05.954Z,1.00
2022-08-28T03:16:12.679Z,1.00
2022-08-28T03:18:19.745Z,1.40
2022-08-28T03:20:26.012Z,1.10
2022-08-28T03:22:50.864Z,0.90
2022-08-28T03:24:56.994Z,1.00
2022-08-28T03:27:02.976Z,0.80
2022-08-28T03:29:09.093Z,0.90
2022-08-28T03:31:21.282Z,1.10
2022-08-28T03:33:28.080Z,1.10
2022-08-28T03:35:35.024Z,1.70
2022-08-28T03:37:42.135Z,1.20
2022-08-28T03:39:48.691Z,1.20
2022-08-28T03:41:57.474Z,1.20
2022-08-28T03:44:04.013Z,1.00
2022-08-28T03:46:14.144Z,1.40
2022-08-28T03:48:21.212Z,1.20
2022-08-28T03:50:27.682Z,0.90
2022-08-28T03:52:36.057Z,0.80
2022-08-28T03:54:42.046Z,1.20
2022-08-28T03:56:48.566Z,1.30
2022-08-28T03:58:58.557Z,1.20
2022-08-28T04:01:05.474Z,1.30
2022-08-28T04:03:14.861Z,1.20
2022-08-28T04:05:21.760Z,1.00
2022-08-28T04:07:31.282Z,1.10
2022-08-28T04:09:37.363Z,1.40
2022-08-28T04:11:43.736Z,1.90
2022-08-28T04:13:50.085Z,1.40
2022-08-28T04:16:06.406Z,1.50
2022-08-28T04:18:13.914Z,1.50
2022-08-28T04:20:21.657Z,1.50
2022-08-28T04:22:27.741Z,1.40
2022-08-28T04:24:34.387Z,2.10
2022-08-28T04:26:40.819Z,1.50
2022-08-28T04:28:48.543Z,1.40
2022-08-28T04:30:56.278Z,1.20
2022-08-28T04:33:02.277Z,1.20
2022-08-28T04:35:13.270Z,1.50
2022-08-28T04:37:20.544Z,2.10
2022-08-28T04:39:29.164Z,1.60
2022-08-28T04:41:37.830Z,1.60
2022-08-28T04:43:44.940Z,2.10
2022-08-28T04:45:51.269Z,1.60
2022-08-28T04:47:57.374Z,1.70
2022-08-28T04:50:08.183Z,1.50
2022-08-28T04:52:14.424Z,1.90
2022-08-28T04:54:20.561Z,1.80
2022-08-28T04:56:27.734Z,2.40
2022-08-28T04:58:35.348Z,2.60
2022-08-28T05:00:43.567Z,2.30
2022-08-28T05:02:49.695Z,2.10
2022-08-28T05:04:55.850Z,2.20
2022-08-28T05:07:01.716Z,2.00
2022-08-28T05:09:08.589Z,1.90
2022-08-28T05:11:32.854Z,2.00
2022-08-28T05:13:40.783Z,2.20
2022-08-28T05:15:51.050Z,1.80
2022-08-28T05:17:57.069Z,1.60
2022-08-28T05:20:03.592Z,1.60
2022-08-28T05:22:13.072Z,2.10
2022-08-28T05:24:19.945Z,1.90
2022-08-28T05:26:28.434Z,1.70
2022-08-28T05:28:36.349Z,2.00
2022-08-28T05:30:44.532Z,2.20
2022-08-28T05:32:50.511Z,1.70
2022-08-28T05:34:56.469Z,2.20
2022-08-28T05:37:03.242Z,2.10
2022-08-28T05:39:12.659Z,1.60
2022-08-28T05:41:23.931Z,1.60
2022-08-28T05:43:30.602Z,2.10
2022-08-28T05:45:36.613Z,2.20
2022-08-28T05:47:43.245Z,2.30
2022-08-28T05:49:49.204Z,1.80
2022-08-28T05:51:58.622Z,1.80
2022-08-28T05:54:05.026Z,1.70
2022-08-28T05:56:16.678Z,2.50
2022-08-28T05:58:32.690Z,2.70
2022-08-28T06:00:38.968Z,2.30
2022-08-28T06:02:46.003Z,1.70
2022-08-28T06:04:52.496Z,1.90
2022-08-28T06:06:59.357Z,1.90
2022-08-28T06:09:14.811Z,2.20
2022-08-28T06:11:24.719Z,1.90
2022-08-28T06:13:31.714Z,1.70
2022-08-28T06:15:44.140Z,2.10
2022-08-28T06:17:50.923Z,2.20
2022-08-28T06:19:57.321Z,2.50
2022-08-28T06:22:07.395Z,2.60
2022-08-28T06:24:14.828Z,2.00
2022-08-28T06:26:21.094Z,1.90
2022-08-28T06:28:29.515Z,2.50
2022-08-28T06:30:41.875Z,2.20
2022-08-28T06:33:07.728Z,1.70
2022-08-28T06:35:15.823Z,2.20
2022-08-28T06:37:22.212Z,1.60
2022-08-28T06:39:28.948Z,2.30
2022-08-28T06:41:36.644Z,2.50
2022-08-28T06:43:43.310Z,1.80
2022-08-28T06:45:55.527Z,2.10
2022-08-28T06:48:02.352Z,2.30
2022-08-28T06:50:09.003Z,2.20
2022-08-28T06:52:15.550Z,2.00
2022-08-28T06:54:23.463Z,2.30
2022-08-28T06:56:29.819Z,1.90
2022-08-28T06:58:41.903Z,2.20
2022-08-28T07:00:50.893Z,1.90
2022-08-28T07:03:03.193Z,2.20
2022-08-28T07:05:12.865Z,2.50
2022-08-28T07:07:32.387Z,2.40
2022-08-28T07:09:38.932Z,2.90
2022-08-28T07:11:47.924Z,2.10
2022-08-28T07:13:55.101Z,2.00
2022-08-28T07:16:01.501Z,2.40
2022-08-28T07:18:08.428Z,2.10
2022-08-28T07:20:15.426Z,1.90
2022-08-28T07:22:21.876Z,2.50
2022-08-28T07:24:30.501Z,2.10
2022-08-28T07:26:37.307Z,2.20
2022-08-28T07:28:43.745Z,2.60
2022-08-28T07:31:03.639Z,2.00
2022-08-28T07:33:09.858Z,2.60
2022-08-28T07:35:16.462Z,2.30
2022-08-28T07:37:23.158Z,2.60
2022-08-28T07:39:29.431Z,2.20
2022-08-28T07:41:40.205Z,2.20
2022-08-28T07:44:05.787Z,2.60
2022-08-28T07:46:15.429Z,2.60
2022-08-28T07:48:21.737Z,2.80
2022-08-28T07:50:28.045Z,2.40
2022-08-28T07:52:34.305Z,2.40
2022-08-28T07:54:41.683Z,2.30
2022-08-28T07:56:51.011Z,2.50
2022-08-28T07:59:01.656Z,2.30
2022-08-28T08:01:08.439Z,2.50
2022-08-28T08:03:15.349Z,2.20
2022-08-28T08:05:22.249Z,1.80
2022-08-28T08:07:29.768Z,2.80
2022-08-28T08:09:44.505Z,2.90
2022-08-28T08:11:50.702Z,2.50
2022-08-28T08:13:58.975Z,1.70
2022-08-28T08:16:09.621Z,2.10
2022-08-28T08:18:16.962Z,2.70
2022-08-28T08:20:26.786Z,2.70
2022-08-28T08:22:33.128Z,2.10
2022-08-28T08:24:39.385Z,2.10
2022-08-28T08:26:50.867Z,2.40
2022-08-28T08:29:06.352Z,2.00
2022-08-28T08:31:17.515Z,2.20
2022-08-28T08:33:23.895Z,3.00
2022-08-28T08:35:29.866Z,2.50
2022-08-28T08:37:36.016Z,3.00
2022-08-28T08:39:43.443Z,2.50
2022-08-28T08:41:55.355Z,2.20
2022-08-28T08:44:09.137Z,2.40
2022-08-28T08:46:15.450Z,2.20
2022-08-28T08:48:33.530Z,3.00
2022-08-28T08:50:40.001Z,2.30
2022-08-28T08:53:09.105Z,2.20
2022-08-28T08:55:23.354Z,2.50
2022-08-28T08:57:30.315Z,2.60
2022-08-28T08:59:40.067Z,2.50
2022-08-28T09:02:08.925Z,2.70
2022-08-28T09:04:41.867Z,2.80
2022-08-28T09:06:56.411Z,2.20
2022-08-28T09:09:08.645Z,2.80
2022-08-28T09:11:56.574Z,2.60
2022-08-28T09:14:29.561Z,2.60
2022-08-28T09:16:42.404Z,1.90
2022-08-28T09:18:50.126Z,2.50
2022-08-28T09:21:00.690Z,2.90
2022-08-28T09:23:12.396Z,2.40
2022-08-28T09:25:51.432Z,2.20
2022-08-28T09:28:10.891Z,2.50
2022-08-28T09:30:29.931Z,2.50
2022-08-28T09:32:44.726Z,2.40
2022-08-28T09:35:20.129Z,2.50
2022-08-28T09:37:33.464Z,2.10
2022-08-28T09:39:40.139Z,2.70
2022-08-28T09:42:35.033Z,2.70
2022-08-28T09:44:55.919Z,2.40
2022-08-28T09:47:02.089Z,2.50
2022-08-28T09:49:16.040Z,2.80
2022-08-28T09:51:22.632Z,2.80
2022-08-28T09:53:30.231Z,3.10
2022-08-28T09:56:13.548Z,3.10
2022-08-28T09:58:19.797Z,3.10
2022-08-28T10:00:26.055Z,3.30
2022-08-28T10:02:50.345Z,3.40
2022-08-28T10:05:05.070Z,3.00
2022-08-28T10:07:39.923Z,2.70
2022-08-28T10:10:02.878Z,2.50
2022-08-28T10:12:31.123Z,2.80
2022-08-28T10:14:43.166Z,2.30
2022-08-28T10:17:03.723Z,2.80
2022-08-28T10:19:17.534Z,2.70
2022-08-28T10:21:35.487Z,2.50
2022-08-28T10:23:47.150Z,2.60
2022-08-28T10:26:31.231Z,2.40
2022-08-28T10:28:57.878Z,2.70
2022-08-28T10:31:27.067Z,2.20
2022-08-28T10:33:55.535Z,2.90
2022-08-28T10:36:33.334Z,1.90
2022-08-28T10:38:49.478Z,2.80
2022-08-28T10:41:23.764Z,3.00
2022-08-28T10:43:48.326Z,2.10
2022-08-28T10:45:55.978Z,2.90
2022-08-28T10:48:25.891Z,2.60
2022-08-28T10:50:40.337Z,3.10
2022-08-28T10:52:57.106Z,2.50
2022-08-28T10:55:25.320Z,2.60
2022-08-28T10:57:50.306Z,3.10
2022-08-28T10:59:56.297Z,2.60
2022-08-28T11:02:06.802Z,3.00
2022-08-28T11:04:25.452Z,3.10
2022-08-28T11:06:44.985Z,2.50
2022-08-28T11:09:00.126Z,2.80
2022-08-28T11:11:12.088Z,2.50
2022-08-28T11:13:55.814Z,3.00
2022-08-28T11:16:02.083Z,2.70
2022-08-28T11:18:17.702Z,2.90
2022-08-28T11:20:30.782Z,3.00
2022-08-28T11:22:53.982Z,3.10
2022-08-28T11:25:09.646Z,2.20
2022-08-28T11:27:36.447Z,3.00
2022-08-28T11:30:01.371Z,2.80
2022-08-28T11:32:37.784Z,3.20
2022-08-28T11:35:05.794Z,3.00
2022-08-28T11:37:42.348Z,2.70
2022-08-28T11:39:49.031Z,3.30
2022-08-28T11:42:14.951Z,2.80
2022-08-28T11:44:40.069Z,2.80
2022-08-28T11:46:48.506Z,2.90
2022-08-28T11:48:59.031Z,3.30
2022-08-28T11:51:31.912Z,3.20
2022-08-28T11:53:49.343Z,3.10
2022-08-28T11:56:01.955Z,3.30
2022-08-28T11:58:26.625Z,2.80
2022-08-28T12:01:02.611Z,3.00
2022-08-28T12:03:12.159Z,3.10
2022-08-28T12:05:18.832Z,3.10
2022-08-28T12:07:34.624Z,3.20
2022-08-28T12:09:45.260Z,2.60
2022-08-28T12:11:54.082Z,3.30
2022-08-28T12:14:00.749Z,2.90
2022-08-28T12:16:08.736Z,2.90
2022-08-28T12:18:14.712Z,3.10
2022-08-28T12:20:42.888Z,3.00
2022-08-28T12:22:54.288Z,3.20
2022-08-28T12:25:07.712Z,3.50
2022-08-28T12:27:15.125Z,3.30
2022-08-28T12:29:49.513Z,3.20
2022-08-28T12:32:12.435Z,3.20
2022-08-28T12:34:31.306Z,3.70
2022-08-28T12:36:37.806Z,3.00
2022-08-28T12:38:51.542Z,3.20
2022-08-28T12:40:57.571Z,2.50
2022-08-28T12:43:07.829Z,3.40
2022-08-28T12:45:36.144Z,4.30
2022-08-28T12:47:46.945Z,3.00
2022-08-28T12:49:53.163Z,3.30
2022-08-28T12:52:32.222Z,3.00
2022-08-28T12:54:38.585Z,3.00
2022-08-28T12:56:45.464Z,3.30
2022-08-28T12:58:52.866Z,3.30
2022-08-28T13:01:02.634Z,3.80
2022-08-28T13:03:08.938Z,3.70
2022-08-28T13:05:37.168Z,3.90
2022-08-28T13:07:50.671Z,3.80
2022-08-28T13:09:59.267Z,4.00
2022-08-28T13:12:07.449Z,3.30
2022-08-28T13:14:14.092Z,3.80
2022-08-28T13:16:37.184Z,3.90
2022-08-28T13:18:47.192Z,3.30
2022-08-28T13:20:53.388Z,3.10
2022-08-28T13:23:01.441Z,3.30
2022-08-28T13:25:08.242Z,3.70
2022-08-28T13:27:14.178Z,3.50
2022-08-28T13:29:23.841Z,2.80
2022-08-28T13:31:37.018Z,3.10
2022-08-28T13:33:43.073Z,2.90
2022-08-28T13:35:49.856Z,3.30
2022-08-28T13:37:59.315Z,3.60
2022-08-28T13:40:09.634Z,3.20
2022-08-28T13:42:22.059Z,3.00
2022-08-28T13:44:34.697Z,3.30
2022-08-28T13:46:40.744Z,3.20
2022-08-28T13:48:46.791Z,3.40
2022-08-28T13:51:04.948Z,3.40
2022-08-28T13:53:15.194Z,4.10
2022-08-28T13:55:21.323Z,3.90
2022-08-28T13:57:29.901Z,3.80
2022-08-28T13:59:36.900Z,4.00
2022-08-28T14:02:03.359Z,3.50
2022-08-28T14:04:09.324Z,3.60
2022-08-28T14:06:18.413Z,3.90
2022-08-28T14:08:25.128Z,4.20
2022-08-28T14:10:31.155Z,4.00
2022-08-28T14:12:37.228Z,3.50
2022-08-28T14:14:43.364Z,3.90
2022-08-28T14:16:51.419Z,4.00
2022-08-28T14:18:57.504Z,3.80
2022-08-28T14:21:06.574Z,3.50
2022-08-28T14:23:12.745Z,3.40
2022-08-28T14:25:19.181Z,2.70
2022-08-28T14:27:25.269Z,3.10
2022-08-28T14:29:32.606Z,2.80
2022-08-28T14:31:41.858Z,2.70
2022-08-28T14:33:48.249Z,2.70
2022-08-28T14:35:54.559Z,2.80
2022-08-28T14:38:00.947Z,2.90
2022-08-28T14:40:08.081Z,3.10
2022-08-28T14:42:14.363Z,3.20
2022-08-28T14:44:21.967Z,2.90
2022-08-28T14:46:31.819Z,2.80
2022-08-28T14:48:38.310Z,2.80
2022-08-28T14:50:45.787Z,3.20
2022-08-28T14:52:51.813Z,2.60
2022-08-28T14:54:58.317Z,2.40
2022-08-28T14:57:05.371Z,2.80
2022-08-28T14:59:18.418Z,2.70
2022-08-28T15:01:40.943Z,2.70
2022-08-28T15:03:47.724Z,3.20
2022-08-28T15:06:09.951Z,3.20
2022-08-28T15:08:18.905Z,2.20
2022-08-28T15:10:25.645Z,2.40
2022-08-28T15:12:32.756Z,2.10
2022-08-28T15:14:38.974Z,2.10
2022-08-28T15:16:47.742Z,2.30
2022-08-28T15:18:56.693Z,2.80
2022-08-28T15:21:03.880Z,3.10
2022-08-28T15:23:11.124Z,2.20
2022-08-28T15:25:17.379Z,2.60
2022-08-28T15:27:25.023Z,2.80
2022-08-28T15:29:31.877Z,2.70
2022-08-28T15:31:42.410Z,2.60
2022-08-28T15:33:48.818Z,3.20
2022-08-28T15:35:58.962Z,2.50
2022-08-28T15:38:06.845Z,2.40
2022-08-28T15:40:31.842Z,2.70
2022-08-28T15:42:38.344Z,2.10
2022-08-28T15:44:45.428Z,2.60
2022-08-28T15:47:05.884Z,3.40
2022-08-28T15:49:12.265Z,2.80
2022-08-28T15:51:22.746Z,2.60
2022-08-28T15:53:32.222Z,2.70
2022-08-28T15:55:38.461Z,2.70
2022-08-28T15:57:45.506Z,3.10
2022-08-28T15:59:51.913Z,3.10
2022-08-28T16:01:58.021Z,4.20
2022-08-28T16:04:05.354Z,3.10
2022-08-28T16:06:18.006Z,3.30
2022-08-28T16:08:24.578Z,3.10
2022-08-28T16:10:31.815Z,3.50
2022-08-28T16:12:41.290Z,3.70
2022-08-28T16:14:47.461Z,3.60
2022-08-28T16:16:53.717Z,3.60
2022-08-28T16:19:00.474Z,3.50
2022-08-28T16:21:07.591Z,3.30
2022-08-28T16:23:15.255Z,3.40
2022-08-28T16:25:21.731Z,3.80
2022-08-28T16:27:28.087Z,3.20
2022-08-28T16:29:35.424Z,3.10
2022-08-28T16:31:42.813Z,3.10
2022-08-28T16:33:49.853Z,3.00
2022-08-28T16:35:57.174Z,3.10
2022-08-28T16:38:03.673Z,2.60
2022-08-28T16:40:10.826Z,2.80
2022-08-28T16:42:17.275Z,3.40
2022-08-28T16:44:26.481Z,3.50
2022-08-28T16:46:32.802Z,3.10
2022-08-28T16:48:39.199Z,3.70
2022-08-28T16:50:46.120Z,3.40
2022-08-28T16:52:52.826Z,2.90
2022-08-28T16:55:00.338Z,2.50
2022-08-28T16:57:06.681Z,3.10
2022-08-28T16:59:23.370Z,2.60
2022-08-28T17:01:31.167Z,3.00
2022-08-28T17:03:38.461Z,2.60
2022-08-28T17:05:44.850Z,2.50
2022-08-28T17:07:51.319Z,2.40
2022-08-28T17:09:57.269Z,2.80
2022-08-28T17:12:03.960Z,2.10
2022-08-28T17:14:12.075Z,2.60
2022-08-28T17:16:20.114Z,2.50
2022-08-28T17:18:27.104Z,2.00
2022-08-28T17:20:51.918Z,1.80
2022-08-28T17:22:58.270Z,2.70
2022-08-28T17:25:10.559Z,2.30
2022-08-28T17:27:22.375Z,2.30
2022-08-28T17:29:29.952Z,2.20
2022-08-28T17:31:36.936Z,2.30
2022-08-28T17:33:45.322Z,2.70
2022-08-28T17:35:52.136Z,2.00
2022-08-28T17:37:58.763Z,1.50
2022-08-28T17:40:07.064Z,1.80
2022-08-28T17:42:13.755Z,2.10
2022-08-28T17:44:19.933Z,2.10
2022-08-28T17:46:27.199Z,1.50
2022-08-28T17:48:33.795Z,1.90
2022-08-28T17:50:40.375Z,1.30
2022-08-28T17:52:46.433Z,1.40
2022-08-28T17:54:52.763Z,1.70
2022-08-28T17:57:01.382Z,1.90
2022-08-28T17:59:07.720Z,1.70
2022-08-28T18:01:19.307Z,1.70
2022-08-28T18:03:25.790Z,1.40
2022-08-28T18:05:32.106Z,1.20
2022-08-28T18:07:38.747Z,1.50
2022-08-28T18:09:44.812Z,2.00
2022-08-28T18:11:52.274Z,1.60
2022-08-28T18:13:58.759Z,1.00
2022-08-28T18:16:05.676Z,1.30
2022-08-28T18:18:14.596Z,1.50
2022-08-28T18:20:21.443Z,1.50
2022-08-28T18:22:29.828Z,1.50
2022-08-28T18:24:36.520Z,1.40
2022-08-28T18:26:43.607Z,1.70
2022-08-28T18:28:50.769Z,1.30
2022-08-28T18:30:58.126Z,1.50
2022-08-28T18:33:11.040Z,1.10
2022-08-28T18:35:17.812Z,1.20
2022-08-28T18:37:36.723Z,1.60
2022-08-28T18:39:42.719Z,1.80
2022-08-28T18:41:51.527Z,1.20
2022-08-28T18:43:58.545Z,1.70
2022-08-28T18:46:11.461Z,1.40
2022-08-28T18:48:19.533Z,1.20
2022-08-28T18:50:28.173Z,1.70
2022-08-28T18:52:34.858Z,1.40
2022-08-28T18:54:40.999Z,1.20
2022-08-28T18:56:50.395Z,1.50
2022-08-28T18:58:56.697Z,1.30
2022-08-28T19:01:03.579Z,1.50
2022-08-28T19:03:10.276Z,1.60
2022-08-28T19:05:16.813Z,1.40
2022-08-28T19:07:23.581Z,1.40
2022-08-28T19:09:32.477Z,1.50
2022-08-28T19:11:40.392Z,1.30
2022-08-28T19:13:47.297Z,1.40
2022-08-28T19:15:54.307Z,1.30
2022-08-28T19:18:04.426Z,1.50
2022-08-28T19:20:16.474Z,1.30
2022-08-28T19:22:23.811Z,1.40
2022-08-28T19:24:34.831Z,1.70
2022-08-28T19:26:41.219Z,1.30
2022-08-28T19:28:47.643Z,1.30
2022-08-28T19:30:54.377Z,1.30
2022-08-28T19:33:02.433Z,1.20
2022-08-28T19:35:09.644Z,1.30
2022-08-28T19:37:17.257Z,1.30
2022-08-28T19:39:24.281Z,1.50
2022-08-28T19:41:30.753Z,1.50
2022-08-28T19:43:43.229Z,1.50
2022-08-28T19:45:51.039Z,1.50
2022-08-28T19:47:57.025Z,1.80
2022-08-28T19:50:03.164Z,1.60
2022-08-28T19:52:09.493Z,1.50
2022-08-28T19:54:16.929Z,1.70
2022-08-28T19:56:28.090Z,1.60
2022-08-28T19:58:37.928Z,1.30
2022-08-28T20:00:44.937Z,1.20
2022-08-28T20:02:53.291Z,1.40
2022-08-28T20:05:00.603Z,1.30
2022-08-28T20:07:06.706Z,1.70
2022-08-28T20:09:13.653Z,1.40
2022-08-28T20:11:29.089Z,1.30
2022-08-28T20:13:36.781Z,1.30
2022-08-28T20:15:47.904Z,1.30
2022-08-28T20:17:55.292Z,1.30
2022-08-28T20:20:03.538Z,1.40
2022-08-28T20:22:10.304Z,1.10
2022-08-28T20:24:23.160Z,1.40
2022-08-28T20:26:29.175Z,1.30
2022-08-28T20:28:35.214Z,1.70
2022-08-28T20:30:42.844Z,1.40
2022-08-28T20:32:49.968Z,1.30
2022-08-28T20:34:56.615Z,1.40
2022-08-28T20:37:02.994Z,1.50
2022-08-28T20:39:13.209Z,1.40
2022-08-28T20:41:21.344Z,1.30
2022-08-28T20:43:27.814Z,1.30
2022-08-28T20:45:33.989Z,1.20
2022-08-28T20:47:39.970Z,1.60
2022-08-28T20:49:46.027Z,1.10
2022-08-28T20:51:57.858Z,1.40
2022-08-28T20:54:03.832Z,1.30
2022-08-28T20:56:11.933Z,1.20
2022-08-28T20:58:18.312Z,1.20
2022-08-28T21:00:26.000Z,1.50
2022-08-28T21:02:32.320Z,1.20
2022-08-28T21:04:40.146Z,1.50
2022-08-28T21:06:48.958Z,1.20
2022-08-28T21:08:57.378Z,1.30
2022-08-28T21:11:03.432Z,1.20
2022-08-28T21:13:10.911Z,1.20
2022-08-28T21:15:17.598Z,1.40
2022-08-28T21:17:30.291Z,1.20
2022-08-28T21:19:40.563Z,1.20
2022-08-28T21:21:47.212Z,1.20
2022-08-28T21:23:54.949Z,1.40
2022-08-28T21:26:01.181Z,1.20
2022-08-28T21:28:07.354Z,1.30
2022-08-28T21:30:16.883Z,1.30
2022-08-28T21:32:23.118Z,1.20
2022-08-28T21:34:29.720Z,1.70
2022-08-28T21:36:36.510Z,1.60
2022-08-28T21:38:43.159Z,1.20
2022-08-28T21:40:49.760Z,1.50
2022-08-28T21:42:55.923Z,1.10
2022-08-28T21:45:11.272Z,1.00
2022-08-28T21:47:19.239Z,1.20
2022-08-28T21:49:26.069Z,1.10
2022-08-28T21:51:35.553Z,1.10
2022-08-28T21:53:45.944Z,1.30
2022-08-28T21:56:01.952Z,1.40
2022-08-28T21:58:14.469Z,1.50
2022-08-28T22:00:24.705Z,1.20
2022-08-28T22:02:31.504Z,1.20
2022-08-28T22:04:38.824Z,1.20
2022-08-28T22:06:45.069Z,1.30
2022-08-28T22:08:56.192Z,1.20
2022-08-28T22:11:05.878Z,1.20
2022-08-28T22:13:13.701Z,1.50
2022-08-28T22:15:20.355Z,1.20
2022-08-28T22:17:27.336Z,1.20
2022-08-28T22:19:33.523Z,1.60
2022-08-28T22:21:58.084Z,1.10
2022-08-28T22:24:04.530Z,1.30
2022-08-28T22:26:14.364Z,1.20
2022-08-28T22:28:20.731Z,1.20
2022-08-28T22:30:27.365Z,1.20
2022-08-28T22:32:34.418Z,1.10
2022-08-28T22:34:44.123Z,1.10
2022-08-28T22:36:50.708Z,0.80
2022-08-28T22:38:57.647Z,1.20
2022-08-28T22:41:04.757Z,1.50
2022-08-28T22:43:11.321Z,1.20
2022-08-28T22:45:21.577Z,1.40
2022-08-28T22:47:28.108Z,1.10
2022-08-28T22:49:34.635Z,1.20
2022-08-28T22:53:51.524Z,0.90
2022-08-28T22:55:57.911Z,1.00
2022-08-28T22:58:05.227Z,1.20
2022-08-28T23:00:18.904Z,1.30
2022-08-28T23:02:27.256Z,1.00
2022-08-28T23:04:35.577Z,1.70
2022-08-28T23:06:42.472Z,1.40
2022-08-28T23:08:49.107Z,1.20
2022-08-28T23:10:59.307Z,0.90
2022-08-28T23:13:05.704Z,1.40
2022-08-28T23:15:15.853Z,1.50
2022-08-28T23:17:22.169Z,1.10
2022-08-28T23:19:31.542Z,1.30
2022-08-28T23:21:40.781Z,1.10
2022-08-28T23:23:51.041Z,1.20
2022-08-28T23:25:57.142Z,1.20
2022-08-28T23:28:06.507Z,1.20
2022-08-28T23:30:15.151Z,1.30
2022-08-28T23:32:21.208Z,1.20
2022-08-28T23:35:41.939Z,1.20
2022-08-28T23:37:52.019Z,1.10
2022-08-28T23:39:58.438Z,0.90
2022-08-28T23:42:06.966Z,1.20
2022-08-28T23:44:14.069Z,1.50
2022-08-28T23:46:21.906Z,1.00
2022-08-28T23:48:28.937Z,0.80
2022-08-28T23:50:36.375Z,1.10
2022-08-28T23:52:44.267Z,1.20
2022-08-28T23:54:51.133Z,1.00
2022-08-28T23:56:57.622Z,0.90
2022-08-28T23:59:05.046Z,1.30
